createdAt,value
2018-04-25T00:00:26.089Z,91.31
2018-04-25T00:02:53.721Z,91.16
2018-04-25T00:05:22.203Z,90.92
2018-04-25T00:07:49.869Z,91.61
2018-04-25T00:10:17.529Z,91.61
2018-04-25T00:12:45.119Z,91.32
2018-04-25T00:15:12.757Z,91.95
2018-04-25T00:17:41.233Z,92.35
2018-04-25T00:20:09.646Z,92.17
2018-04-25T00:22:37.284Z,92.04
2018-04-25T00:25:04.911Z,92.00
2018-04-25T00:27:32.508Z,92.19
2018-04-25T00:30:00.086Z,92.25
2018-04-25T00:32:27.737Z,91.40
2018-04-25T00:34:56.241Z,91.71
2018-04-25T00:37:24.607Z,92.48
2018-04-25T00:39:52.308Z,92.69
2018-04-25T00:42:19.885Z,92.34
2018-04-25T00:44:47.464Z,92.18
2018-04-25T00:47:15.041Z,92.10
2018-04-25T00:49:42.709Z,92.51
2018-04-25T00:52:10.291Z,93.10
2018-04-25T00:54:37.897Z,93.47
2018-04-25T00:57:05.473Z,93.07
2018-04-25T00:59:33.150Z,93.10
2018-04-25T01:02:00.733Z,92.93
2018-04-25T01:04:29.292Z,93.12
2018-04-25T01:06:57.673Z,92.66
2018-04-25T01:09:25.283Z,93.08
2018-04-25T01:11:53.893Z,93.10
2018-04-25T01:14:21.489Z,93.54
2018-04-25T01:16:49.098Z,93.68
2018-04-25T01:19:16.718Z,93.66
2018-04-25T01:21:44.368Z,93.86
2018-04-25T01:24:11.950Z,94.00
2018-04-25T01:26:39.597Z,93.42
2018-04-25T01:29:07.181Z,93.26
2018-04-25T01:31:37.673Z,93.35
2018-04-25T01:34:06.881Z,92.68
2018-04-25T01:36:37.936Z,92.73
2018-04-25T01:39:09.477Z,93.11
2018-04-25T01:41:37.059Z,92.83
2018-04-25T01:44:08.530Z,92.81
2018-04-25T01:46:36.112Z,92.36
2018-04-25T01:49:13.173Z,92.87
2018-04-25T01:51:52.493Z,92.90
2018-04-25T01:54:31.858Z,93.40
2018-04-25T01:57:11.174Z,92.52
2018-04-25T01:59:50.509Z,92.34
2018-04-25T02:02:17.550Z,92.76
2018-04-25T02:04:45.129Z,92.82
2018-04-25T02:07:13.488Z,93.01
2018-04-25T02:09:41.103Z,93.14
2018-04-25T02:12:08.685Z,92.60
2018-04-25T02:14:36.293Z,92.80
2018-04-25T02:17:03.872Z,92.68
2018-04-25T02:19:31.502Z,92.92
2018-04-25T02:21:59.091Z,93.14
2018-04-25T02:24:26.682Z,92.54
2018-04-25T02:26:54.269Z,92.40
2018-04-25T02:29:21.854Z,92.36
2018-04-25T02:31:49.489Z,92.80
2018-04-25T02:34:17.069Z,93.59
2018-04-25T02:36:44.687Z,92.64
2018-04-25T02:39:12.306Z,92.59
2018-04-25T02:41:39.889Z,91.85
2018-04-25T02:44:07.506Z,92.08
2018-04-25T02:46:35.082Z,92.17
2018-04-25T02:49:02.711Z,91.93
2018-04-25T02:51:30.311Z,91.89
2018-04-25T02:53:57.923Z,91.99
2018-04-25T02:56:25.580Z,92.06
2018-04-25T02:58:53.176Z,92.22
2018-04-25T03:01:20.797Z,92.25
2018-04-25T03:03:48.409Z,92.83
2018-04-25T03:06:16.058Z,93.01
2018-04-25T03:08:43.677Z,93.28
2018-04-25T03:11:11.268Z,94.03
2018-04-25T03:13:38.882Z,93.61
2018-04-25T03:16:06.469Z,93.13
2018-04-25T03:18:34.051Z,93.12
2018-04-25T03:21:01.634Z,93.17
2018-04-25T03:23:29.252Z,93.37
2018-04-25T03:25:56.837Z,91.91
2018-04-25T03:28:24.422Z,91.58
2018-04-25T03:30:52.045Z,91.59
2018-04-25T03:33:19.633Z,91.74
2018-04-25T03:35:47.297Z,90.81
2018-04-25T03:38:14.961Z,90.74
2018-04-25T03:40:42.541Z,90.66
2018-04-25T03:43:10.121Z,91.10
2018-04-25T03:45:37.710Z,90.90
2018-04-25T03:48:05.289Z,91.35
2018-04-25T03:50:33.044Z,91.94
2018-04-25T03:53:00.614Z,90.55
2018-04-25T03:55:28.239Z,90.73
2018-04-25T03:57:55.831Z,91.49
2018-04-25T04:00:23.421Z,91.51
2018-04-25T04:02:51.002Z,91.73
2018-04-25T04:05:18.580Z,91.32
2018-04-25T04:07:46.157Z,91.30
2018-04-25T04:10:14.683Z,91.64
2018-04-25T04:12:42.261Z,91.04
2018-04-25T04:15:09.841Z,90.31
2018-04-25T04:17:37.422Z,90.01
2018-04-25T04:20:05.140Z,90.17
2018-04-25T04:22:32.721Z,90.09
2018-04-25T04:25:01.310Z,89.47
2018-04-25T04:27:28.894Z,89.20
2018-04-25T04:29:56.468Z,89.75
2018-04-25T04:32:24.050Z,89.29
2018-04-25T04:34:51.673Z,89.15
2018-04-25T04:37:19.258Z,89.35
2018-04-25T04:39:46.841Z,88.85
2018-04-25T04:42:14.421Z,89.21
2018-04-25T04:44:42.029Z,88.73
2018-04-25T04:47:09.610Z,88.92
2018-04-25T04:49:38.140Z,88.62
2018-04-25T04:52:05.751Z,88.40
2018-04-25T04:54:33.437Z,87.87
2018-04-25T04:57:01.065Z,87.62
2018-04-25T04:59:28.649Z,87.07
2018-04-25T05:01:56.320Z,87.01
2018-04-25T05:04:23.962Z,87.13
2018-04-25T05:06:51.710Z,87.19
2018-04-25T05:09:20.262Z,86.46
2018-04-25T05:11:47.934Z,86.06
2018-04-25T05:14:15.567Z,84.30
2018-04-25T05:16:43.161Z,84.29
2018-04-25T05:19:10.889Z,83.64
2018-04-25T05:21:38.474Z,83.55
2018-04-25T05:24:06.113Z,81.76
2018-04-25T05:26:33.778Z,82.07
2018-04-25T05:29:01.369Z,80.28
2018-04-25T05:31:29.004Z,79.23
2018-04-25T05:33:56.601Z,79.72
2018-04-25T05:36:24.219Z,80.04
2018-04-25T05:38:51.801Z,79.68
2018-04-25T05:41:19.421Z,79.10
2018-04-25T05:43:47.003Z,75.87
2018-04-25T05:46:14.678Z,78.48
2018-04-25T05:48:42.265Z,78.71
2018-04-25T05:51:09.862Z,77.04
2018-04-25T05:53:37.442Z,76.71
2018-04-25T05:56:05.029Z,76.76
2018-04-25T05:58:32.637Z,77.85
2018-04-25T06:01:00.224Z,76.08
2018-04-25T06:03:27.807Z,75.26
2018-04-25T06:05:55.426Z,74.84
2018-04-25T06:08:23.004Z,73.53
2018-04-25T06:10:50.615Z,74.24
2018-04-25T06:13:18.242Z,73.81
2018-04-25T06:15:45.908Z,74.09
2018-04-25T06:18:13.572Z,75.08
2018-04-25T06:20:41.958Z,71.43
2018-04-25T06:23:09.542Z,74.64
2018-04-25T06:25:37.165Z,73.99
2018-04-25T06:28:04.792Z,72.66
2018-04-25T06:30:32.370Z,69.25
2018-04-25T06:32:59.956Z,70.56
2018-04-25T06:35:27.540Z,70.92
2018-04-25T06:37:55.153Z,68.23
2018-04-25T06:40:22.733Z,70.82
2018-04-25T06:42:50.310Z,70.97
2018-04-25T06:45:17.897Z,71.99
2018-04-25T06:47:45.481Z,71.26
2018-04-25T06:50:13.126Z,70.75
2018-04-25T06:52:40.752Z,69.51
2018-04-25T06:55:08.345Z,70.00
2018-04-25T06:57:35.929Z,66.62
2018-04-25T07:00:03.536Z,66.88
2018-04-25T07:02:31.115Z,68.29
2018-04-25T07:04:58.703Z,67.72
2018-04-25T07:07:26.289Z,67.29
2018-04-25T07:09:53.877Z,68.30
2018-04-25T07:12:21.459Z,69.85
2018-04-25T07:14:49.078Z,66.63
2018-04-25T07:17:16.769Z,68.02
2018-04-25T07:19:44.351Z,68.42
2018-04-25T07:22:11.926Z,69.85
2018-04-25T07:24:39.515Z,69.51
2018-04-25T07:27:07.099Z,68.09
2018-04-25T07:29:34.689Z,69.87
2018-04-25T07:32:02.323Z,69.12
2018-04-25T07:34:38.080Z,68.09
2018-04-25T07:37:05.692Z,67.81
2018-04-25T07:39:33.269Z,67.33
2018-04-25T07:42:00.965Z,67.86
2018-04-25T07:44:28.481Z,69.19
2018-04-25T07:46:56.097Z,68.36
2018-04-25T07:49:23.665Z,70.70
2018-04-25T07:51:51.282Z,69.28
2018-04-25T07:54:18.862Z,70.29
2018-04-25T07:56:46.436Z,69.13
2018-04-25T07:59:15.923Z,69.56
2018-04-25T08:01:43.501Z,69.72
2018-04-25T08:04:11.115Z,69.40
2018-04-25T08:06:38.703Z,68.87
2018-04-25T08:09:06.314Z,67.78
2018-04-25T08:11:33.900Z,70.42
2018-04-25T08:14:13.260Z,69.88
2018-04-25T08:16:52.668Z,71.03
2018-04-25T08:19:31.984Z,69.17
2018-04-25T08:21:59.550Z,71.87
2018-04-25T08:24:27.122Z,71.36
2018-04-25T08:26:54.734Z,71.66
2018-04-25T08:29:22.306Z,68.83
2018-04-25T08:31:49.928Z,69.32
2018-04-25T08:34:17.616Z,70.10
2018-04-25T08:36:45.181Z,69.54
2018-04-25T08:39:12.788Z,66.38
2018-04-25T08:41:40.396Z,64.16
2018-04-25T08:44:08.004Z,63.49
2018-04-25T08:46:35.584Z,66.06
2018-04-25T08:49:03.176Z,63.27
2018-04-25T08:51:30.754Z,65.29
2018-04-25T08:53:58.338Z,62.19
2018-04-25T08:56:25.920Z,62.19
2018-04-25T08:58:53.531Z,63.95
2018-04-25T09:01:21.358Z,63.00
2018-04-25T09:03:48.932Z,65.34
2018-04-25T09:06:16.541Z,65.04
2018-04-25T09:08:44.114Z,66.70
2018-04-25T09:11:11.722Z,67.79
2018-04-25T09:13:39.302Z,66.26
2018-04-25T09:16:06.915Z,65.09
2018-04-25T09:18:34.493Z,63.12
2018-04-25T09:21:02.097Z,64.08
2018-04-25T09:23:29.676Z,62.51
2018-04-25T09:25:57.246Z,62.31
2018-04-25T09:28:24.821Z,61.34
2018-04-25T09:30:52.406Z,62.77
2018-04-25T09:33:20.026Z,60.97
2018-04-25T09:35:47.633Z,56.45
2018-04-25T09:38:15.214Z,55.75
2018-04-25T09:40:42.822Z,55.71
2018-04-25T09:43:10.401Z,56.38
2018-04-25T09:45:37.979Z,56.83
2018-04-25T09:48:05.554Z,52.61
2018-04-25T09:50:33.139Z,56.44
2018-04-25T09:53:00.714Z,54.99
2018-04-25T09:55:28.294Z,55.05
2018-04-25T09:57:56.045Z,55.70
2018-04-25T10:03:23.468Z,52.63
2018-04-25T10:05:51.126Z,53.15
2018-04-25T10:08:18.752Z,51.78
2018-04-25T10:10:46.358Z,53.48
2018-04-25T10:13:13.951Z,54.36
2018-04-25T10:15:41.531Z,56.82
2018-04-25T10:18:09.153Z,52.94
2018-04-25T10:20:36.729Z,51.84
2018-04-25T10:23:04.314Z,52.63
2018-04-25T10:25:31.926Z,49.92
2018-04-25T10:27:59.506Z,51.63
2018-04-25T10:30:27.087Z,51.30
2018-04-25T10:32:54.692Z,50.02
2018-04-25T10:35:22.313Z,49.10
2018-04-25T10:37:49.881Z,49.70
2018-04-25T10:40:17.458Z,48.45
2018-04-25T10:42:45.027Z,48.50
2018-04-25T10:45:12.601Z,50.33
2018-04-25T10:47:40.252Z,48.43
2018-04-25T10:50:07.827Z,49.86
2018-04-25T10:52:35.392Z,51.31
2018-04-25T10:55:02.970Z,51.06
2018-04-25T10:57:30.613Z,49.36
2018-04-25T10:59:58.181Z,50.21
2018-04-25T11:02:25.805Z,49.96
2018-04-25T11:04:53.361Z,49.77
2018-04-25T11:07:20.990Z,51.94
2018-04-25T11:09:48.554Z,49.60
2018-04-25T11:12:16.131Z,50.97
2018-04-25T11:14:44.439Z,50.38
2018-04-25T11:17:12.022Z,52.72
2018-04-25T11:19:39.632Z,51.37
2018-04-25T11:22:07.206Z,52.78
2018-04-25T11:24:34.858Z,52.91
2018-04-25T11:27:02.425Z,51.52
2018-04-25T11:29:30.007Z,50.45
2018-04-25T11:31:57.634Z,51.59
2018-04-25T11:34:25.186Z,51.15
2018-04-25T11:36:53.590Z,50.71
2018-04-25T11:39:21.169Z,50.94
2018-04-25T11:41:48.751Z,51.33
2018-04-25T11:44:16.373Z,52.63
2018-04-25T11:46:43.956Z,58.78
2018-04-25T11:49:11.535Z,63.03
2018-04-25T11:51:39.117Z,65.07
2018-04-25T11:54:06.689Z,67.70
2018-04-25T11:56:34.306Z,71.28
2018-04-25T11:59:01.887Z,76.40
2018-04-25T12:01:29.472Z,78.03
2018-04-25T12:03:57.105Z,79.86
2018-04-25T12:06:24.688Z,82.23
2018-04-25T12:08:52.264Z,82.51
2018-04-25T12:11:19.845Z,83.41
2018-04-25T12:13:47.430Z,83.74
2018-04-25T12:16:15.010Z,76.61
2018-04-25T12:18:42.602Z,75.21
2018-04-25T12:21:10.185Z,78.78
2018-04-25T12:23:37.757Z,72.87
2018-04-25T12:26:05.337Z,73.52
2018-04-25T12:28:32.911Z,74.48
2018-04-25T12:31:00.485Z,71.74
2018-04-25T12:33:28.098Z,69.62
2018-04-25T12:35:55.762Z,68.27
2018-04-25T12:38:23.289Z,69.10
2018-04-25T12:40:51.543Z,64.01
2018-04-25T12:43:19.406Z,63.15
2018-04-25T12:45:46.987Z,62.10
2018-04-25T12:48:14.630Z,62.36
2018-04-25T12:50:42.326Z,63.06
2018-04-25T12:53:09.963Z,62.77
2018-04-25T12:55:38.319Z,60.90
2018-04-25T12:58:05.968Z,62.81
2018-04-25T13:00:33.586Z,62.13
2018-04-25T13:03:01.175Z,63.49
2018-04-25T13:05:28.787Z,60.92
2018-04-25T13:07:56.361Z,62.96
2018-04-25T13:10:24.007Z,57.79
2018-04-25T13:12:51.591Z,57.89
2018-04-25T13:15:19.193Z,58.19
2018-04-25T13:17:46.766Z,55.45
2018-04-25T13:20:14.345Z,53.95
2018-04-25T13:22:41.917Z,53.35
2018-04-25T13:25:09.488Z,53.46
2018-04-25T13:27:37.070Z,53.16
2018-04-25T13:30:04.650Z,53.73
2018-04-25T13:32:32.240Z,54.70
2018-04-25T13:34:59.813Z,54.56
2018-04-25T13:37:27.414Z,54.25
2018-04-25T13:39:55.108Z,55.14
2018-04-25T13:42:22.749Z,55.14
2018-04-25T13:44:50.307Z,55.22
2018-04-25T13:47:17.889Z,53.53
2018-04-25T13:49:45.465Z,54.07
2018-04-25T13:52:13.983Z,55.08
2018-04-25T13:54:41.641Z,54.77
2018-04-25T13:57:09.218Z,53.27
2018-04-25T13:59:36.798Z,52.90
2018-04-25T14:02:04.502Z,50.41
2018-04-25T14:04:32.233Z,47.46
2018-04-25T14:06:59.856Z,46.24
2018-04-25T14:09:27.521Z,46.56
2018-04-25T14:11:55.225Z,45.53
2018-04-25T14:14:22.797Z,46.00
2018-04-25T14:16:50.370Z,46.78
2018-04-25T14:19:17.969Z,46.73
2018-04-25T14:21:45.544Z,47.57
2018-04-25T14:24:13.226Z,46.15
2018-04-25T14:26:40.803Z,46.63
2018-04-25T14:29:08.384Z,47.19
2018-04-25T14:31:36.872Z,47.29
2018-04-25T14:34:04.449Z,47.14
2018-04-25T14:36:32.056Z,47.98
2018-04-25T14:38:59.634Z,47.86
2018-04-25T14:41:27.242Z,45.92
2018-04-25T14:43:55.625Z,47.14
2018-04-25T14:46:23.202Z,46.08
2018-04-25T14:48:50.778Z,46.14
2018-04-25T14:51:18.356Z,47.11
2018-04-25T14:53:45.929Z,49.35
2018-04-25T14:56:13.502Z,49.67
2018-04-25T14:58:41.083Z,50.15
2018-04-25T15:01:08.664Z,50.92
2018-04-25T15:03:36.247Z,51.51
2018-04-25T15:08:37.626Z,49.59
2018-04-25T15:11:05.210Z,48.86
2018-04-25T15:13:32.809Z,49.08
2018-04-25T15:16:00.383Z,45.65
2018-04-25T15:18:27.952Z,43.43
2018-04-25T15:20:55.530Z,43.27
2018-04-25T15:23:23.106Z,42.71
2018-04-25T15:25:50.682Z,43.39
2018-04-25T15:28:18.262Z,44.90
2018-04-25T15:30:45.841Z,46.73
2018-04-25T15:33:13.417Z,45.34
2018-04-25T15:35:40.988Z,44.75
2018-04-25T15:38:08.561Z,45.04
2018-04-25T15:40:36.141Z,46.15
2018-04-25T15:43:03.714Z,46.69
2018-04-25T15:45:31.285Z,46.87
2018-04-25T15:47:58.865Z,47.81
2018-04-25T15:50:26.433Z,46.96
2018-04-25T15:52:54.005Z,46.56
2018-04-25T15:55:21.586Z,47.17
2018-04-25T15:57:49.873Z,46.40
2018-04-25T16:00:17.454Z,47.74
2018-04-25T16:02:45.100Z,48.16
2018-04-25T16:05:12.672Z,47.97
2018-04-25T16:07:40.246Z,49.82
2018-04-25T16:10:07.822Z,49.21
2018-04-25T16:12:35.455Z,50.02
2018-04-25T16:15:03.018Z,49.26
2018-04-25T16:17:30.609Z,50.08
2018-04-25T16:19:58.189Z,49.74
2018-04-25T16:22:25.884Z,49.88
2018-04-25T16:24:53.498Z,51.20
2018-04-25T16:27:21.075Z,51.64
2018-04-25T16:29:49.004Z,51.46
2018-04-25T16:32:16.583Z,51.45
2018-04-25T16:34:44.195Z,52.27
2018-04-25T16:37:11.864Z,51.36
2018-04-25T16:39:39.440Z,51.86
2018-04-25T16:42:07.018Z,52.85
2018-04-25T16:44:34.610Z,52.99
2018-04-25T16:47:02.261Z,53.22
2018-04-25T16:49:29.842Z,53.39
2018-04-25T16:51:57.418Z,53.59
2018-04-25T16:54:24.994Z,53.01
2018-04-25T16:56:52.587Z,53.09
2018-04-25T16:59:20.165Z,53.26
2018-04-25T17:01:47.751Z,53.39
2018-04-25T17:04:15.369Z,53.31
2018-04-25T17:06:42.955Z,53.82
2018-04-25T17:09:10.590Z,53.13
2018-04-25T17:11:38.173Z,54.31
2018-04-25T17:14:05.757Z,53.94
2018-04-25T17:16:33.343Z,54.22
2018-04-25T17:19:00.922Z,55.00
2018-04-25T17:21:28.497Z,55.29
2018-04-25T17:23:56.099Z,55.22
2018-04-25T17:26:23.674Z,55.54
2018-04-25T17:28:51.250Z,56.32
2018-04-25T17:31:18.894Z,56.38
2018-04-25T17:33:46.466Z,57.00
2018-04-25T17:36:14.054Z,57.09
2018-04-25T17:38:41.658Z,57.29
2018-04-25T17:41:09.275Z,57.31
2018-04-25T17:43:36.951Z,58.10
2018-04-25T17:46:04.530Z,57.51
2018-04-25T17:48:32.303Z,57.84
2018-04-25T17:50:59.884Z,58.25
2018-04-25T17:53:27.465Z,58.75
2018-04-25T17:55:55.067Z,59.15
2018-04-25T17:58:22.727Z,59.14
2018-04-25T18:00:50.310Z,60.77
2018-04-25T18:03:18.041Z,60.09
2018-04-25T18:05:45.577Z,60.64
2018-04-25T18:08:14.192Z,60.77
2018-04-25T18:10:41.771Z,61.27
2018-04-25T18:13:09.379Z,61.87
2018-04-25T18:15:37.013Z,61.96
2018-04-25T18:18:04.593Z,63.52
2018-04-25T18:20:32.167Z,64.34
2018-04-25T18:22:59.766Z,63.53
2018-04-25T18:25:27.360Z,62.66
2018-04-25T18:27:55.011Z,63.58
2018-04-25T18:30:22.726Z,63.24
2018-04-25T18:32:50.271Z,63.37
2018-04-25T18:35:17.886Z,63.87
2018-04-25T18:37:45.470Z,64.27
2018-04-25T18:40:13.489Z,64.20
2018-04-25T18:42:41.229Z,67.10
2018-04-25T18:45:08.941Z,66.99
2018-04-25T18:47:36.606Z,65.57
2018-04-25T18:50:04.305Z,65.62
2018-04-25T18:52:31.986Z,66.48
2018-04-25T18:54:59.694Z,66.59
2018-04-25T18:57:27.395Z,66.41
2018-04-25T18:59:55.022Z,67.86
2018-04-25T19:02:22.617Z,66.62
2018-04-25T19:04:50.201Z,67.11
2018-04-25T19:07:17.780Z,68.85
2018-04-25T19:09:45.358Z,68.40
2018-04-25T19:12:12.945Z,68.80
2018-04-25T19:14:40.593Z,68.94
2018-04-25T19:17:08.174Z,69.24
2018-04-25T19:19:35.780Z,70.60
2018-04-25T19:22:03.411Z,69.95
2018-04-25T19:24:30.994Z,70.44
2018-04-25T19:26:58.595Z,70.26
2018-04-25T19:29:26.259Z,70.43
2018-04-25T19:31:53.922Z,71.00
2018-04-25T19:34:21.533Z,72.10
2018-04-25T19:36:49.116Z,73.26
2018-04-25T19:39:17.610Z,73.98
2018-04-25T19:41:45.190Z,73.85
2018-04-25T19:44:13.068Z,73.77
2018-04-25T19:46:40.645Z,75.08
2018-04-25T19:49:08.228Z,73.72
2018-04-25T19:51:35.811Z,73.74
2018-04-25T19:54:03.399Z,74.72
2018-04-25T19:56:30.970Z,74.59
2018-04-25T19:58:58.556Z,75.18
2018-04-25T20:01:26.219Z,75.68
2018-04-25T20:03:53.846Z,75.35
2018-04-25T20:06:21.427Z,74.79
2018-04-25T20:08:49.123Z,75.37
2018-04-25T20:11:16.701Z,75.57
2018-04-25T20:13:50.650Z,75.49
2018-04-25T20:16:18.265Z,74.32
2018-04-25T20:18:45.842Z,73.77
2018-04-25T20:21:13.420Z,74.44
2018-04-25T20:23:41.138Z,74.61
2018-04-25T20:26:09.541Z,75.22
2018-04-25T20:28:37.116Z,74.54
2018-04-25T20:31:04.740Z,74.72
2018-04-25T20:33:33.053Z,75.01
2018-04-25T20:36:01.413Z,75.63
2018-04-25T20:38:29.849Z,75.55
2018-04-25T20:40:57.425Z,76.05
2018-04-25T20:43:25.066Z,75.86
2018-04-25T20:45:52.641Z,75.52
2018-04-25T20:48:20.210Z,75.96
2018-04-25T20:50:47.828Z,76.54
2018-04-25T20:53:16.131Z,76.07
2018-04-25T20:55:43.707Z,76.34
2018-04-25T20:58:11.350Z,76.38
2018-04-25T21:00:38.950Z,76.74
2018-04-25T21:03:06.527Z,77.24
2018-04-25T21:05:34.130Z,77.80
2018-04-25T21:08:01.706Z,77.97
2018-04-25T21:10:29.283Z,79.02
2018-04-25T21:12:56.894Z,79.29
2018-04-25T21:15:24.498Z,79.53
2018-04-25T21:17:52.075Z,79.85
2018-04-25T21:20:19.738Z,80.04
2018-04-25T21:22:47.315Z,79.67
2018-04-25T21:25:14.931Z,80.32
2018-04-25T21:27:42.512Z,79.87
2018-04-25T21:30:10.198Z,80.29
2018-04-25T21:32:37.779Z,80.35
2018-04-25T21:35:05.355Z,79.77
2018-04-25T21:37:33.036Z,80.09
2018-04-25T21:40:00.614Z,80.31
2018-04-25T21:42:28.191Z,79.73
2018-04-25T21:44:55.797Z,80.20
2018-04-25T21:47:23.379Z,80.31
2018-04-25T21:49:50.971Z,80.19
2018-04-25T21:52:18.559Z,80.58
2018-04-25T21:54:46.152Z,80.75
2018-04-25T21:57:13.736Z,81.24
2018-04-25T21:59:41.309Z,82.50
2018-04-25T22:02:08.882Z,81.90
2018-04-25T22:04:36.559Z,82.21
2018-04-25T22:07:04.138Z,82.96
2018-04-25T22:09:31.709Z,83.46
2018-04-25T22:11:59.347Z,82.78
2018-04-25T22:14:27.002Z,83.46
2018-04-25T22:16:54.579Z,83.06
2018-04-25T22:19:22.146Z,83.40
2018-04-25T22:21:49.787Z,83.60
2018-04-25T22:24:17.361Z,83.54
2018-04-25T22:26:44.939Z,83.53
2018-04-25T22:29:12.545Z,83.30
2018-04-25T22:31:40.117Z,83.66
2018-04-25T22:34:07.719Z,83.14
2018-04-25T22:36:35.291Z,84.07
2018-04-25T22:39:02.976Z,83.27
2018-04-25T22:41:30.544Z,83.92
2018-04-25T22:43:58.117Z,83.51
2018-04-25T22:46:25.690Z,84.23
2018-04-25T22:48:53.367Z,84.45
2018-04-25T22:51:22.759Z,84.37
2018-04-25T22:53:50.343Z,84.18
2018-04-25T22:56:17.915Z,82.63
2018-04-25T22:58:45.561Z,82.32
2018-04-25T23:01:13.201Z,81.59
2018-04-25T23:03:40.886Z,83.00
2018-04-25T23:06:08.461Z,82.04
2018-04-25T23:08:36.040Z,81.10
2018-04-25T23:11:03.621Z,81.84
2018-04-25T23:13:31.235Z,81.20
2018-04-25T23:15:58.930Z,81.59
2018-04-25T23:18:26.594Z,80.85
2018-04-25T23:20:54.172Z,81.89
2018-04-25T23:23:21.746Z,81.80
2018-04-25T23:25:49.318Z,81.75
2018-04-25T23:28:16.894Z,81.34
2018-04-25T23:30:44.518Z,81.81
2018-04-25T23:33:12.123Z,81.63
2018-04-25T23:35:39.741Z,81.87
2018-04-25T23:38:07.349Z,83.15
2018-04-25T23:40:34.927Z,82.28
2018-04-25T23:43:02.579Z,82.81
2018-04-25T23:45:30.155Z,81.66
2018-04-25T23:47:57.800Z,82.26
2018-04-25T23:50:25.381Z,81.93
2018-04-25T23:52:52.957Z,80.77
2018-04-25T23:55:20.535Z,80.28
2018-04-25T23:57:48.247Z,80.17
